Time;durP1;ratioP1;P1;durP2;ratioP2;P2;SDS_P1;SDS_P2;PMS_P1;PMS_P2;Temp;Humidity;BMP_temperature;BMP_pressure;BME280_temperature;BME280_humidity;BME280_pressure;Samples;Min_cycle;Max_cycle;Signal;HPM_P1;HPM_P2
2023/06/05 00:00:00;;;;;;;3.70;3.17;;;17.70;81.20;;;;;;5138393;27;20442;-77
2023/06/05 00:15:51;;;;;;;5.27;3.30;;;17.40;84.60;;;;;;4998117;28;20486;-77
2023/06/05 00:19:19;;;;;;;;;;;;;;;;;;;;;
2023/06/05 00:22:02;;;;;;;3.83;3.07;;;17.20;85.40;;;;;;5005511;28;20462;-78
2023/06/05 00:30:45;;;;;;;6.50;5.70;;;17.10;89.30;;;;;;5085525;28;20490;-76
2023/06/05 00:36:33;;;;;;;5.77;4.57;;;17.10;89.20;;;;;;5147881;27;20505;-76
2023/06/05 00:39:03;;;;;;;5.13;4.10;;;17.00;89.70;;;;;;5149526;27;20438;-75
2023/06/05 00:41:44;;;;;;;4.10;3.47;;;16.90;90.20;;;;;;5148298;27;20486;-77
2023/06/05 00:44:17;;;;;;;4.57;3.83;;;16.90;90.50;;;;;;5148670;27;20441;-76
2023/06/05 00:46:48;;;;;;;4.57;3.70;;;16.90;90.90;;;;;;5151239;27;20423;-76
2023/06/05 00:49:32;;;;;;;4.93;3.53;;;16.80;91.20;;;;;;5148343;27;20477;-77
2023/06/05 00:52:01;;;;;;;9.23;4.17;;;16.80;91.40;;;;;;5150888;27;20466;-77
2023/06/05 00:58:08;;;;;;;4.73;4.30;;;16.80;91.70;;;;;;5136611;27;20442;-76
2023/06/05 01:00:43;;;;;;;6.03;4.03;;;16.80;92.00;;;;;;5143865;27;20473;-76
2023/06/05 01:03:39;;;;;;;4.20;3.40;;;16.70;92.00;;;;;;5154651;27;20444;-76
2023/06/05 01:06:31;;;;;;;5.30;3.80;;;16.60;92.20;;;;;;5147666;27;20922;-76
2023/06/05 01:09:26;;;;;;;4.00;3.70;;;16.60;92.60;;;;;;5144813;27;20606;-77
2023/06/05 01:12:04;;;;;;;3.27;3.00;;;16.50;92.80;;;;;;5142754;27;20468;-77
2023/06/05 01:14:48;;;;;;;3.60;3.30;;;16.50;93.30;;;;;;5157734;27;20441;-76
2023/06/05 01:17:28;;;;;;;4.17;3.23;;;16.30;93.70;;;;;;5157586;27;20447;-76
2023/06/05 01:20:11;;;;;;;3.30;3.10;;;16.20;94.50;;;;;;5157573;27;20440;-76
2023/06/05 01:22:57;;;;;;;3.67;3.20;;;16.20;94.70;;;;;;5156984;27;20464;-76
2023/06/05 01:25:41;;;;;;;5.33;4.10;;;16.20;95.00;;;;;;5157096;27;20485;-76
2023/06/05 01:28:42;;;;;;;4.83;3.20;;;16.10;95.40;;;;;;5157162;27;20468;-76
2023/06/05 01:37:03;;;;;;;3.87;3.50;;;16.00;96.40;;;;;;5155823;27;20429;-76
2023/06/05 01:39:41;;;;;;;5.00;3.07;;;16.00;96.60;;;;;;5157928;27;20444;-76
2023/06/05 01:42:12;;;;;;;4.87;3.57;;;16.00;96.80;;;;;;5158099;27;20461;-76
2023/06/05 01:44:57;;;;;;;3.00;2.80;;;15.90;97.10;;;;;;5158984;27;20453;-77
2023/06/05 01:47:30;;;;;;;4.50;3.20;;;15.90;97.90;;;;;;5156357;27;20532;-76
2023/06/05 01:50:25;;;;;;;4.07;3.17;;;15.90;98.70;;;;;;5158549;27;20522;-77
2023/06/05 01:53:02;;;;;;;7.03;3.90;;;15.80;99.40;;;;;;5163479;27;20725;-76
2023/06/05 02:01:22;;;;;;;3.83;3.53;;;15.60;99.90;;;;;;5157218;27;20459;-77
2023/06/05 02:03:57;;;;;;;3.80;3.40;;;15.50;99.90;;;;;;5157777;27;20444;-77
2023/06/05 02:06:52;;;;;;;3.10;2.80;;;15.50;99.90;;;;;;5158014;27;20543;-77
2023/06/05 02:13:33;;;;;;;3.90;3.50;;;15.40;99.90;;;;;;5146275;27;20452;-76
2023/06/05 02:16:23;;;;;;;3.30;3.00;;;15.40;99.90;;;;;;5158160;27;20453;-76
2023/06/05 02:19:06;;;;;;;4.03;3.20;;;15.30;99.90;;;;;;5157839;27;20560;-76
2023/06/05 02:21:36;;;;;;;3.43;3.13;;;15.30;99.90;;;;;;5137550;27;20464;-77
2023/06/05 02:24:26;;;;;;;3.87;3.53;;;15.30;99.90;;;;;;5136181;27;20446;-75
2023/06/05 02:27:10;;;;;;;3.97;2.93;;;15.30;99.90;;;;;;5136445;27;20450;-76
2023/06/05 02:29:37;;;;;;;4.30;3.13;;;15.30;99.90;;;;;;5147976;27;20477;-76
2023/06/05 02:32:07;;;;;;;4.23;3.83;;;15.20;99.90;;;;;;5147978;27;20450;-77
2023/06/05 02:34:46;;;;;;;3.40;3.10;;;15.20;99.90;;;;;;5145371;27;20438;-75
2023/06/05 02:37:17;;;;;;;3.40;3.20;;;15.10;99.90;;;;;;5146955;27;20441;-76
2023/06/05 02:39:53;;;;;;;3.53;2.90;;;15.10;99.90;;;;;;5150338;27;20475;-76
2023/06/05 02:42:23;;;;;;;3.70;3.13;;;15.00;99.90;;;;;;5151008;27;20457;-75
2023/06/05 02:45:07;;;;;;;3.20;3.00;;;15.00;99.90;;;;;;5149521;27;20473;-76
2023/06/05 02:47:55;;;;;;;3.40;3.20;;;14.90;99.90;;;;;;5148373;27;20941;-75
2023/06/05 02:53:32;;;;;;;3.67;3.13;;;14.80;99.90;;;;;;5143892;27;20445;-76
2023/06/05 02:56:02;;;;;;;3.33;3.03;;;14.80;99.90;;;;;;5147842;27;20518;-76
2023/06/05 02:58:31;;;;;;;3.20;3.00;;;14.80;99.90;;;;;;5146332;28;20432;-76
2023/06/05 03:01:02;;;;;;;3.60;3.30;;;14.80;99.90;;;;;;5148906;27;20457;-75
2023/06/05 03:03:33;;;;;;;3.60;3.30;;;14.80;99.90;;;;;;5150333;28;20402;-76
2023/06/05 03:06:04;;;;;;;3.77;2.93;;;14.70;99.90;;;;;;5149490;28;20438;-75
2023/06/05 03:08:35;;;;;;;3.93;3.53;;;14.70;99.90;;;;;;5149311;28;20503;-75
2023/06/05 03:11:49;;;;;;;4.60;3.40;;;14.70;99.90;;;;;;5149911;27;20442;-77
2023/06/05 03:14:30;;;;;;;3.50;3.20;;;14.70;99.90;;;;;;5131815;27;20475;-76
2023/06/05 03:17:07;;;;;;;4.33;3.50;;;14.60;99.90;;;;;;5151272;27;20802;-74
2023/06/05 03:19:46;;;;;;;4.03;3.63;;;14.50;99.90;;;;;;5151264;28;20438;-75
2023/06/05 03:22:14;;;;;;;3.57;3.27;;;14.50;99.90;;;;;;5151827;27;20526;-75
2023/06/05 03:24:55;;;;;;;3.63;3.33;;;14.40;99.90;;;;;;5151085;28;20442;-76
2023/06/05 03:27:28;;;;;;;4.17;3.20;;;14.30;99.90;;;;;;5150915;28;20475;-76
2023/06/05 03:30:05;;;;;;;4.10;3.57;;;14.30;99.90;;;;;;5152156;28;20538;-76
2023/06/05 03:32:45;;;;;;;3.63;3.33;;;14.30;99.90;;;;;;5151927;27;20457;-76
2023/06/05 03:35:14;;;;;;;3.60;3.30;;;14.30;99.90;;;;;;5152283;27;20465;-75
2023/06/05 03:37:41;;;;;;;4.27;3.17;;;14.30;99.90;;;;;;5152243;28;20446;-76
2023/06/05 03:40:13;;;;;;;4.50;3.70;;;14.30;99.90;;;;;;5152894;27;20453;-76
2023/06/05 03:43:01;;;;;;;5.30;3.10;;;14.30;99.90;;;;;;5148555;27;20461;-76
2023/06/05 03:45:48;;;;;;;5.73;2.80;;;14.30;99.90;;;;;;5145207;27;20446;-76
2023/06/05 03:48:43;;;;;;;4.00;3.03;;;14.30;99.90;;;;;;5135336;27;20476;-76
2023/06/05 03:51:30;;;;;;;3.80;3.50;;;14.30;99.90;;;;;;5131825;27;20454;-77
2023/06/05 03:54:10;;;;;;;3.73;3.27;;;14.30;99.90;;;;;;5134723;27;20510;-76
2023/06/05 03:56:57;;;;;;;4.27;3.27;;;14.30;99.90;;;;;;5135845;27;20449;-76
2023/06/05 03:59:28;;;;;;;5.67;3.20;;;14.30;99.90;;;;;;5134014;27;20446;-75
2023/06/05 04:02:29;;;;;;;3.50;3.20;;;14.30;99.90;;;;;;5134647;27;20469;-76
2023/06/05 04:05:23;;;;;;;3.40;3.00;;;14.20;99.90;;;;;;5108978;27;20481;-77
2023/06/05 04:10:47;;;;;;;3.83;3.50;;;14.20;99.90;;;;;;5104011;27;20549;-77
2023/06/05 04:13:29;;;;;;;4.40;4.00;;;14.20;99.90;;;;;;5139008;27;20516;-76
2023/06/05 04:19:10;;;;;;;3.87;3.53;;;14.30;99.90;;;;;;5137564;27;20449;-76
2023/06/05 04:21:39;;;;;;;4.33;3.30;;;14.30;99.90;;;;;;5141433;27;20604;-76
2023/06/05 04:28:00;;;;;;;4.03;3.63;;;14.30;99.90;;;;;;5047402;28;20900;-76
2023/06/05 04:33:45;;;;;;;5.00;3.73;;;14.40;99.90;;;;;;5119960;27;20795;-77
2023/06/05 04:36:28;;;;;;;5.97;4.53;;;14.40;99.90;;;;;;5144146;27;20477;-77
2023/06/05 04:39:17;;;;;;;4.77;4.10;;;14.50;99.90;;;;;;5144676;27;20418;-76
2023/06/05 04:42:32;;;;;;;5.10;4.00;;;14.60;99.90;;;;;;5141979;27;20462;-76
2023/06/05 04:45:17;;;;;;;6.73;3.40;;;14.60;99.90;;;;;;5141295;27;20517;-75
2023/06/05 04:50:48;;;;;;;4.57;3.67;;;14.80;99.90;;;;;;5133095;27;20489;-76
2023/06/05 04:53:56;;;;;;;4.20;3.80;;;14.90;99.90;;;;;;5122839;27;20449;-76
2023/06/05 04:59:18;;;;;;;7.40;4.57;;;15.00;99.90;;;;;;5141091;27;20446;-77
2023/06/05 05:01:49;;;;;;;5.50;3.90;;;14.60;99.90;;;;;;5144075;27;20458;-76
2023/06/05 05:04:23;;;;;;;9.87;3.93;;;15.10;99.90;;;;;;5149097;27;20446;-77
2023/06/05 05:07:03;;;;;;;4.40;4.00;;;15.20;99.90;;;;;;5152874;27;20441;-77
2023/06/05 05:13:02;;;;;;;4.93;3.50;;;15.30;99.90;;;;;;5082026;28;20479;-77
2023/06/05 05:15:34;;;;;;;3.80;3.17;;;15.50;99.90;;;;;;5152858;27;20436;-76
2023/06/05 05:18:34;;;;;;;3.90;2.97;;;15.50;99.90;;;;;;5152896;27;20411;-77
2023/06/05 05:21:14;;;;;;;5.40;3.13;;;15.70;99.90;;;;;;5151734;27;20487;-77
2023/06/05 05:24:43;;;;;;;7.73;4.30;;;15.70;99.90;;;;;;5153679;27;20441;-77
2023/06/05 05:28:08;;;;;;;3.33;3.03;;;15.90;99.90;;;;;;5038533;28;20529;-76
2023/06/05 05:31:06;;;;;;;5.17;3.63;;;16.00;99.90;;;;;;5001808;28;20996;-76
2023/06/05 05:34:23;;;;;;;3.40;3.10;;;16.10;99.90;;;;;;5135018;27;20474;-76
2023/06/05 05:37:35;;;;;;;5.13;3.40;;;16.20;99.90;;;;;;5072196;28;20456;-78
2023/06/05 05:52:53;;;;;;;3.37;3.07;;;16.80;99.90;;;;;;4952094;28;20455;-76
2023/06/05 05:56:00;;;;;;;;;;;;;;;;;;;;;
2023/06/05 05:58:50;;;;;;;3.97;3.33;;;17.00;99.90;;;;;;4933793;29;20443;-77
2023/06/05 06:01:18;;;;;;;4.03;3.20;;;17.00;99.90;;;;;;4984220;28;20552;-76
2023/06/05 06:07:08;;;;;;;8.17;3.80;;;17.30;99.90;;;;;;5135310;27;20437;-76
2023/06/05 06:10:07;;;;;;;4.33;3.90;;;17.40;99.90;;;;;;5139149;27;20523;-76
2023/06/05 06:16:24;;;;;;;4.20;3.80;;;17.50;99.90;;;;;;5113502;27;20430;-78
2023/06/05 06:19:23;;;;;;;7.90;3.87;;;17.70;99.90;;;;;;5134322;27;20454;-77
2023/06/05 06:22:37;;;;;;;4.30;3.87;;;17.70;99.90;;;;;;5134859;27;20500;-76
2023/06/05 06:25:14;;;;;;;3.53;3.23;;;17.80;99.90;;;;;;5135871;27;20454;-78
2023/06/05 06:27:43;;;;;;;4.63;3.90;;;17.90;99.90;;;;;;5133752;27;20426;-77
2023/06/05 06:30:18;;;;;;;4.70;3.63;;;18.00;99.90;;;;;;5140535;27;21075;-78
2023/06/05 06:32:57;;;;;;;6.07;3.67;;;18.00;99.90;;;;;;5136363;27;20494;-76
2023/06/05 06:35:27;;;;;;;3.60;3.30;;;18.10;99.90;;;;;;5133666;27;20437;-76
2023/06/05 06:40:41;;;;;;;4.50;4.10;;;18.20;99.90;;;;;;5131299;27;20449;-76
2023/06/05 06:43:23;;;;;;;5.23;4.27;;;18.30;99.90;;;;;;5133491;27;20466;-76
2023/06/05 06:45:54;;;;;;;5.20;3.93;;;18.30;99.90;;;;;;5133382;27;20460;-77
2023/06/05 06:48:37;;;;;;;3.67;3.37;;;18.20;99.90;;;;;;5135317;27;20518;-76
2023/06/05 06:51:40;;;;;;;6.60;3.67;;;18.10;99.90;;;;;;5158364;27;20499;-76
2023/06/05 06:54:22;;;;;;;3.80;3.30;;;18.10;99.90;;;;;;5153144;27;20947;-76
2023/06/05 06:57:00;;;;;;;4.20;3.80;;;18.30;99.90;;;;;;5158182;27;20983;-76
2023/06/05 06:59:31;;;;;;;4.33;3.83;;;18.60;99.90;;;;;;5158030;27;20470;-77
2023/06/05 07:02:19;;;;;;;4.40;4.00;;;18.80;99.90;;;;;;5155199;27;20449;-76
2023/06/05 07:04:55;;;;;;;9.13;4.00;;;19.00;99.90;;;;;;5155690;27;20433;-77
2023/06/05 07:07:46;;;;;;;4.67;4.27;;;19.00;99.90;;;;;;5157175;27;20548;-77
2023/06/05 07:10:18;;;;;;;4.10;3.80;;;19.00;99.90;;;;;;5155834;27;20475;-77
2023/06/05 07:16:24;;;;;;;5.33;4.10;;;19.10;99.90;;;;;;5152873;27;20441;-77
2023/06/05 07:19:15;;;;;;;4.37;3.50;;;19.20;99.90;;;;;;5155480;27;20452;-76
2023/06/05 07:22:19;;;;;;;5.77;4.43;;;19.30;99.90;;;;;;5134999;27;20458;-77
2023/06/05 07:34:30;;;;;;;5.53;4.73;;;19.80;99.90;;;;;;5117172;27;20525;-78
2023/06/05 07:37:37;;;;;;;4.97;4.13;;;19.90;99.90;;;;;;5134725;27;20442;-77
2023/06/05 07:49:42;;;;;;;4.80;4.40;;;20.30;99.90;;;;;;5104157;27;20425;-75
2023/06/05 07:52:17;;;;;;;8.43;5.07;;;20.30;99.90;;;;;;5140072;27;20466;-76
2023/06/05 07:54:48;;;;;;;5.40;4.90;;;20.30;99.90;;;;;;5141115;27;20445;-77
2023/06/05 07:57:37;;;;;;;6.03;5.47;;;20.50;99.90;;;;;;5143486;27;20947;-79
2023/06/05 08:00:10;;;;;;;5.60;5.10;;;20.60;99.90;;;;;;5143423;27;20468;-75
2023/06/05 08:06:02;;;;;;;;;;;;;;;;;;;;;
2023/06/05 08:09:15;;;;;;;5.80;5.30;;;20.90;99.90;;;;;;5146101;27;20434;-76
2023/06/05 08:12:11;;;;;;;;;;;;;;;;;;;;;
2023/06/05 08:15:01;;;;;;;10.33;5.63;;;20.90;99.90;;;;;;5147181;27;20434;-76
2023/06/05 08:17:36;;;;;;;6.70;5.23;;;20.80;99.90;;;;;;5146010;27;20580;-76
2023/06/05 08:23:06;;;;;;;8.67;6.50;;;21.20;99.90;;;;;;5146920;27;20446;-76
2023/06/05 08:26:15;;;;;;;6.27;5.50;;;21.30;99.90;;;;;;5149349;27;20425;-75
2023/06/05 08:28:45;;;;;;;7.10;6.50;;;21.60;99.90;;;;;;5091344;28;20440;-77
2023/06/05 08:31:23;;;;;;;6.67;6.10;;;21.70;99.90;;;;;;5107628;28;20483;-77
2023/06/05 08:33:52;;;;;;;6.07;5.37;;;21.90;99.90;;;;;;5150710;27;20429;-78
2023/06/05 08:39:31;;;;;;;6.00;5.47;;;22.20;99.90;;;;;;5162106;27;20425;-76
2023/06/05 08:42:03;;;;;;;6.37;5.70;;;22.50;99.90;;;;;;5163002;27;20453;-76
2023/06/05 08:44:39;;;;;;;6.90;6.30;;;22.50;99.90;;;;;;5163643;27;20442;-76
2023/06/05 08:47:18;;;;;;;6.80;6.20;;;22.50;99.90;;;;;;5165873;27;20445;-77
2023/06/05 08:50:02;;;;;;;6.73;5.70;;;22.40;99.90;;;;;;5166986;27;20422;-76
2023/06/05 08:52:49;;;;;;;6.07;5.47;;;22.40;99.90;;;;;;5166307;27;20604;-77
2023/06/05 08:55:23;;;;;;;7.97;5.90;;;22.50;99.90;;;;;;5155782;27;20446;-77
2023/06/05 09:01:02;;;;;;;7.37;6.63;;;22.70;99.90;;;;;;5150719;27;20495;-76
2023/06/05 09:03:51;;;;;;;5.83;5.33;;;22.70;99.90;;;;;;5150260;27;20551;-78
2023/06/05 09:07:16;;;;;;;6.53;6.00;;;22.80;99.90;;;;;;5155515;27;20840;-76
2023/06/05 09:09:48;;;;;;;6.00;5.40;;;23.00;99.90;;;;;;5156836;27;20433;-78
2023/06/05 09:12:44;;;;;;;5.97;5.47;;;23.00;99.90;;;;;;5153316;27;20462;-78
2023/06/05 09:16:01;;;;;;;5.57;5.10;;;23.10;99.90;;;;;;5164169;27;20445;-77
2023/06/05 09:19:05;;;;;;;5.97;5.47;;;23.20;99.90;;;;;;5158626;27;20445;-78
2023/06/05 09:49:24;;;;;;;6.00;5.50;;;25.90;99.90;;;;;;5131832;27;20425;-77
2023/06/05 09:52:12;;;;;;;6.23;5.67;;;25.90;99.90;;;;;;5159308;27;20468;-79
2023/06/05 09:55:17;;;;;;;6.57;6.10;;;25.60;99.90;;;;;;5159002;27;20442;-77
2023/06/05 09:57:59;;;;;;;5.50;5.00;;;25.30;99.90;;;;;;5159439;27;20466;-76
2023/06/05 10:00:44;;;;;;;6.00;5.50;;;25.30;99.90;;;;;;5142855;27;20508;-77
2023/06/05 10:03:26;;;;;;;7.40;5.20;;;25.90;99.90;;;;;;5155911;27;20457;-77
2023/06/05 10:09:12;;;;;;;6.23;5.80;;;26.40;99.00;;;;;;5154668;27;20434;-77
2023/06/05 10:12:07;;;;;;;5.73;5.20;;;26.00;98.30;;;;;;5158877;27;20477;-76
2023/06/05 10:14:54;;;;;;;5.17;4.67;;;26.30;97.00;;;;;;5149305;27;20437;-78
2023/06/05 10:17:27;;;;;;;5.83;4.97;;;26.60;96.70;;;;;;5161091;27;20448;-77
2023/06/05 10:23:39;;;;;;;5.63;5.13;;;27.10;94.00;;;;;;5094928;28;20825;-79
2023/06/05 10:26:32;;;;;;;5.10;4.80;;;27.50;94.00;;;;;;5099286;27;20450;-79
2023/06/05 10:29:36;;;;;;;5.37;4.90;;;27.30;90.80;;;;;;5147976;27;20480;-77
2023/06/05 10:32:11;;;;;;;4.87;4.50;;;27.20;90.60;;;;;;5150589;27;20509;-77
2023/06/05 10:34:58;;;;;;;4.43;4.13;;;27.00;90.00;;;;;;5141730;27;20521;-79
2023/06/05 10:38:00;;;;;;;4.80;4.40;;;27.00;90.10;;;;;;5157466;27;20469;-79
2023/06/05 10:40:32;;;;;;;4.87;4.47;;;27.20;88.80;;;;;;5142319;27;20454;-79
2023/06/05 10:43:58;;;;;;;;;;;;;;;;;;;;;
2023/06/05 10:46:57;;;;;;;4.63;4.33;;;26.90;88.10;;;;;;5137596;27;20434;-77
2023/06/05 10:49:50;;;;;;;4.30;4.00;;;27.40;86.00;;;;;;5136800;27;20443;-76
2023/06/05 10:52:43;;;;;;;4.13;3.83;;;26.80;85.50;;;;;;5127644;27;20527;-78
2023/06/05 10:55:28;;;;;;;4.47;4.10;;;27.20;82.70;;;;;;5151868;27;20437;-77
2023/06/05 11:01:29;;;;;;;4.60;4.23;;;27.50;79.10;;;;;;5161080;27;20582;-78
2023/06/05 11:04:34;;;;;;;5.00;4.20;;;28.00;77.70;;;;;;5160367;27;20885;-78
2023/06/05 11:07:22;;;;;;;4.53;4.00;;;28.60;76.30;;;;;;5156324;27;20464;-76
2023/06/05 11:10:15;;;;;;;7.03;4.73;;;28.90;73.90;;;;;;5161741;27;20469;-79
2023/06/05 11:13:05;;;;;;;4.13;3.83;;;29.30;72.40;;;;;;5162381;27;20511;-78
2023/06/05 11:19:18;;;;;;;4.20;3.90;;;29.40;70.30;;;;;;5149741;27;20948;-77
2023/06/05 11:22:17;;;;;;;4.50;4.20;;;29.50;68.30;;;;;;5144485;27;20446;-77
2023/06/05 11:25:06;;;;;;;4.17;3.87;;;29.10;68.80;;;;;;5144330;27;20435;-78
2023/06/05 11:27:45;;;;;;;3.87;3.57;;;29.30;68.30;;;;;;5132285;27;20446;-79
2023/06/05 11:30:47;;;;;;;4.20;3.90;;;29.20;66.70;;;;;;5151921;27;20871;-77
2023/06/05 11:33:26;;;;;;;4.83;4.37;;;29.60;66.50;;;;;;5161590;27;20579;-77
2023/06/05 11:36:15;;;;;;;4.60;4.20;;;29.20;66.40;;;;;;5159767;27;20453;-78
2023/06/05 11:42:40;;;;;;;5.07;4.30;;;29.80;66.20;;;;;;5153870;27;20465;-76
2023/06/05 11:45:23;;;;;;;4.80;4.40;;;29.90;63.70;;;;;;5158828;27;20473;-79
2023/06/05 11:47:59;;;;;;;6.73;4.20;;;28.80;64.20;;;;;;5160064;27;20473;-79
2023/06/05 11:50:30;;;;;;;4.27;3.93;;;29.30;64.60;;;;;;5159948;27;20988;-78
2023/06/05 11:53:30;;;;;;;5.37;3.90;;;29.20;64.10;;;;;;5158974;27;20461;-79
2023/06/05 11:56:32;;;;;;;4.23;3.70;;;29.20;63.40;;;;;;5134279;27;20464;-78
2023/06/05 11:59:05;;;;;;;4.13;3.83;;;29.50;63.40;;;;;;5161183;27;20536;-79
2023/06/05 12:01:59;;;;;;;4.40;4.10;;;29.70;63.00;;;;;;5160691;27;20454;-80
2023/06/05 12:05:18;;;;;;;4.33;4.00;;;29.60;62.40;;;;;;5164451;27;20448;-77
2023/06/05 12:17:24;;;;;;;3.80;3.50;;;28.40;62.40;;;;;;5060176;28;20449;-79
2023/06/05 12:26:12;;;;;;;4.60;4.20;;;28.80;61.60;;;;;;5054477;28;20519;-77
2023/06/05 12:29:07;;;;;;;4.10;3.80;;;29.60;60.20;;;;;;5044536;28;20442;-78
2023/06/05 12:37:47;;;;;;;7.27;4.93;;;29.60;59.20;;;;;;5034608;28;20440;-78
2023/06/05 12:40:20;;;;;;;6.40;4.93;;;29.80;59.60;;;;;;5043926;28;20466;-79
2023/06/05 12:42:55;;;;;;;4.63;4.23;;;30.50;57.80;;;;;;5045071;28;20452;-78
2023/06/05 12:45:49;;;;;;;5.60;4.73;;;30.60;57.60;;;;;;5050125;28;20966;-79
2023/06/05 12:48:27;;;;;;;4.90;4.53;;;30.20;57.00;;;;;;5050821;28;20439;-75
2023/06/05 12:51:10;;;;;;;5.97;4.43;;;30.30;57.40;;;;;;5051040;28;20486;-78
2023/06/05 13:08:26;;;;;;;4.20;3.90;;;30.70;55.10;;;;;;4743020;30;20514;-77
2023/06/05 13:14:18;;;;;;;4.87;4.47;;;31.20;53.60;;;;;;4737805;30;20471;-79
2023/06/05 13:17:08;;;;;;;4.83;4.43;;;31.30;52.90;;;;;;4743772;29;20459;-77
2023/06/05 13:20:08;;;;;;;4.87;4.37;;;30.50;53.00;;;;;;5017652;28;20459;-77
2023/06/05 13:38:46;;;;;;;4.73;4.33;;;31.20;52.80;;;;;;4963089;29;20519;-77
2023/06/05 13:41:43;;;;;;;4.57;4.27;;;32.00;52.60;;;;;;4964938;28;20792;-76
2023/06/05 13:44:16;;;;;;;5.00;4.60;;;32.30;52.00;;;;;;5056069;28;20783;-77
2023/06/05 13:47:24;;;;;;;4.70;4.30;;;32.30;50.40;;;;;;5068648;28;20439;-77
2023/06/05 13:50:12;;;;;;;6.13;4.67;;;32.10;51.60;;;;;;5041211;28;21037;-77
2023/06/05 13:53:07;;;;;;;5.00;4.43;;;31.80;52.30;;;;;;5041856;28;20502;-78
2023/06/05 13:55:41;;;;;;;5.20;4.80;;;31.50;52.10;;;;;;5061273;28;20526;-76
2023/06/05 13:58:13;;;;;;;5.10;4.70;;;29.60;53.80;;;;;;5064200;28;21080;-77
2023/06/05 14:03:39;;;;;;;5.27;4.87;;;30.60;54.40;;;;;;5063091;28;20492;-77
2023/06/05 14:10:22;;;;;;;4.37;3.97;;;31.90;53.30;;;;;;5064458;28;20448;-77
2023/06/05 14:13:27;;;;;;;5.23;4.73;;;31.70;53.00;;;;;;5056654;28;20475;-78
2023/06/05 14:16:22;;;;;;;5.57;4.43;;;31.40;53.30;;;;;;5065605;28;20671;-77
2023/06/05 14:19:07;;;;;;;5.33;4.90;;;31.60;52.70;;;;;;5068374;28;20486;-77
2023/06/05 14:22:18;;;;;;;4.70;4.30;;;31.30;52.90;;;;;;5029943;28;20465;-77
2023/06/05 14:24:54;;;;;;;4.60;4.30;;;31.60;53.10;;;;;;5029351;28;20461;-76
2023/06/05 14:27:44;;;;;;;;;;;;;;;;;;;;;
2023/06/05 14:30:16;;;;;;;5.00;4.60;;;31.40;53.80;;;;;;5027553;28;20432;-78
2023/06/05 14:32:49;;;;;;;5.70;4.63;;;31.50;53.00;;;;;;5022842;28;20992;-78
2023/06/05 14:35:25;;;;;;;5.90;5.20;;;30.80;53.80;;;;;;5024117;28;20452;-78
2023/06/05 14:38:15;;;;;;;6.20;5.03;;;31.00;53.40;;;;;;5026158;28;20983;-77
2023/06/05 14:40:54;;;;;;;4.60;3.93;;;31.40;53.20;;;;;;5026235;28;20847;-77
2023/06/05 14:46:34;;;;;;;4.57;4.20;;;30.60;53.40;;;;;;5006944;28;20444;-77
2023/06/05 14:49:20;;;;;;;4.73;4.23;;;31.20;52.80;;;;;;5029542;28;20449;-77
2023/06/05 14:52:16;;;;;;;4.37;3.93;;;31.00;52.40;;;;;;5033348;28;20485;-78
2023/06/05 14:55:40;;;;;;;5.37;4.67;;;31.30;52.10;;;;;;5030381;28;20421;-77
2023/06/05 14:58:27;;;;;;;5.10;4.70;;;31.70;52.10;;;;;;5009820;28;20512;-78
2023/06/05 15:01:40;;;;;;;;;;;;;;;;;;;;;
2023/06/05 15:04:35;;;;;;;6.03;4.60;;;30.20;52.50;;;;;;5001780;28;20786;-77
2023/06/05 15:07:22;;;;;;;5.30;4.20;;;30.00;53.10;;;;;;5002079;28;20436;-76
2023/06/05 15:10:08;;;;;;;4.53;4.13;;;30.10;53.10;;;;;;5000136;28;20913;-76
2023/06/05 15:13:09;;;;;;;4.63;4.20;;;31.00;51.70;;;;;;5000740;28;20477;-78
2023/06/05 15:15:58;;;;;;;5.10;4.03;;;30.50;50.80;;;;;;4998926;28;20483;-76
2023/06/05 15:18:26;;;;;;;5.13;4.03;;;30.00;52.20;;;;;;4994642;28;20468;-79
2023/06/05 15:21:26;;;;;;;4.87;3.90;;;29.60;52.50;;;;;;5026172;28;21002;-78
2023/06/05 15:24:29;;;;;;;4.37;4.03;;;30.40;51.80;;;;;;5036331;28;20463;-77
2023/06/05 15:27:11;;;;;;;5.20;3.73;;;30.50;51.70;;;;;;5036718;28;20517;-77
2023/06/05 15:33:28;;;;;;;4.27;3.87;;;30.40;52.30;;;;;;5029397;28;20597;-78
2023/06/05 15:36:13;;;;;;;4.20;3.80;;;31.00;51.60;;;;;;5034466;28;20527;-77
2023/06/05 15:39:09;;;;;;;3.70;3.40;;;31.20;51.00;;;;;;5033941;28;20555;-76
2023/06/05 15:42:01;;;;;;;3.67;3.47;;;30.90;51.10;;;;;;5033214;28;20527;-76
2023/06/05 15:44:43;;;;;;;4.27;3.87;;;31.40;50.80;;;;;;5033010;28;20457;-77
2023/06/05 15:47:29;;;;;;;3.93;3.57;;;31.30;51.40;;;;;;5035518;28;20463;-78
2023/06/05 15:50:17;;;;;;;4.00;3.70;;;30.90;51.90;;;;;;5037109;28;21017;-76
2023/06/05 15:55:50;;;;;;;4.73;4.33;;;29.90;53.20;;;;;;5035506;28;20463;-76
2023/06/05 15:58:45;;;;;;;4.10;3.70;;;29.90;52.80;;;;;;5042732;28;20453;-76
2023/06/05 16:01:51;;;;;;;4.53;4.23;;;30.10;52.40;;;;;;5042325;28;20472;-77
2023/06/05 16:04:32;;;;;;;3.87;3.63;;;28.90;53.60;;;;;;5048801;28;20447;-76
2023/06/05 16:07:12;;;;;;;5.33;4.30;;;28.70;54.00;;;;;;5049248;28;20424;-78
2023/06/05 16:10:12;;;;;;;;;;;;;;;;;;;;;
2023/06/05 16:16:12;;;;;;;3.70;3.40;;;28.60;54.60;;;;;;5047436;28;20446;-77
2023/06/05 16:19:04;;;;;;;4.53;4.13;;;28.80;54.10;;;;;;5048231;28;20434;-76
2023/06/05 16:21:50;;;;;;;4.30;3.90;;;29.20;53.50;;;;;;5046402;28;20463;-78
2023/06/05 16:24:28;;;;;;;4.13;3.83;;;29.30;53.10;;;;;;5038173;28;20466;-78
2023/06/05 16:27:12;;;;;;;5.37;3.73;;;29.30;52.70;;;;;;5047788;28;20617;-76
2023/06/05 16:29:46;;;;;;;3.70;3.50;;;30.00;52.20;;;;;;5047496;28;20495;-76
2023/06/05 16:32:14;;;;;;;4.37;3.70;;;30.20;52.60;;;;;;5037670;28;20482;-78
2023/06/05 16:35:02;;;;;;;5.03;4.07;;;29.50;52.20;;;;;;5048095;28;20526;-77
2023/06/05 16:37:57;;;;;;;3.93;3.63;;;29.70;52.50;;;;;;5048899;28;20462;-76
2023/06/05 16:40:55;;;;;;;4.40;4.03;;;29.00;52.70;;;;;;5049959;28;20471;-78
2023/06/05 16:44:00;;;;;;;3.70;3.40;;;28.70;52.60;;;;;;5053112;28;20471;-76
2023/06/05 16:46:30;;;;;;;4.27;3.97;;;29.10;52.80;;;;;;5044229;28;20441;-79
2023/06/05 16:48:57;;;;;;;3.60;3.30;;;29.20;52.90;;;;;;5040620;28;20465;-77
2023/06/05 16:54:24;;;;;;;4.67;4.27;;;29.10;52.90;;;;;;5053257;28;20478;-76
2023/06/05 16:57:20;;;;;;;4.50;4.10;;;28.80;53.30;;;;;;5052838;28;20764;-77
2023/06/05 17:06:44;;;;;;;5.90;3.93;;;28.90;53.70;;;;;;5054116;28;20436;-78
2023/06/05 17:09:19;;;;;;;4.67;4.27;;;28.50;53.90;;;;;;5056249;28;20467;-76
2023/06/05 17:12:07;;;;;;;4.90;4.33;;;28.30;54.00;;;;;;5053603;28;20467;-76
2023/06/05 17:14:49;;;;;;;5.40;3.80;;;28.10;54.60;;;;;;5053763;28;20525;-78
2023/06/05 17:17:24;;;;;;;3.80;3.60;;;28.40;54.40;;;;;;5055384;28;20452;-76
2023/06/05 17:20:03;;;;;;;4.53;4.10;;;28.20;54.60;;;;;;5054532;28;20454;-77
2023/06/05 17:22:41;;;;;;;4.60;4.20;;;28.20;54.60;;;;;;5051455;28;20554;-79
2023/06/05 17:31:03;;;;;;;4.53;4.13;;;27.90;54.70;;;;;;4967649;28;20520;-77
2023/06/05 17:36:41;;;;;;;6.83;4.00;;;27.80;55.00;;;;;;4957453;29;20925;-77
2023/06/05 17:39:57;;;;;;;4.50;4.00;;;27.90;54.90;;;;;;4994736;28;21171;-77
2023/06/05 17:42:45;;;;;;;3.93;3.63;;;27.90;54.90;;;;;;4950441;28;20450;-79
2023/06/05 17:48:45;;;;;;;4.70;4.40;;;26.60;56.60;;;;;;4991216;28;20539;-78
2023/06/05 17:51:44;;;;;;;4.63;3.97;;;26.50;56.90;;;;;;5037379;28;20508;-79
2023/06/05 17:54:45;;;;;;;5.23;4.83;;;26.70;56.20;;;;;;5035670;28;20486;-78
2023/06/05 17:57:44;;;;;;;5.67;4.10;;;26.60;56.80;;;;;;5037096;28;20447;-78
2023/06/05 18:00:16;;;;;;;4.40;4.07;;;26.70;56.70;;;;;;5034664;28;20443;-78
2023/06/05 18:02:52;;;;;;;3.90;3.60;;;26.60;56.80;;;;;;5037871;28;20451;-79
2023/06/05 18:05:32;;;;;;;4.53;3.87;;;26.80;56.70;;;;;;5037245;28;20535;-76
2023/06/05 18:08:16;;;;;;;6.10;3.97;;;26.40;56.70;;;;;;5037603;28;20542;-79
2023/06/05 18:11:10;;;;;;;4.10;3.70;;;26.10;57.20;;;;;;5002683;28;20462;-80
2023/06/05 18:13:46;;;;;;;4.63;4.23;;;26.00;57.80;;;;;;5037434;28;20478;-79
2023/06/05 18:16:22;;;;;;;5.70;4.43;;;25.80;58.30;;;;;;5039025;28;20976;-77
2023/06/05 18:19:17;;;;;;;;;;;;;;;;;;;;;
2023/06/05 18:22:02;;;;;;;4.20;3.90;;;25.80;58.40;;;;;;5045230;28;20807;-77
2023/06/05 18:24:57;;;;;;;3.83;3.53;;;25.70;58.40;;;;;;5046189;28;20450;-79
2023/06/05 18:34:06;;;;;;;4.40;4.07;;;25.20;59.30;;;;;;5044851;26;20480;-79
2023/06/05 18:37:09;;;;;;;5.27;4.77;;;25.20;59.20;;;;;;5066274;28;20426;-78
2023/06/05 18:39:49;;;;;;;4.70;3.93;;;25.10;59.40;;;;;;5066936;28;20461;-78
2023/06/05 19:19:07;;;;;;;4.90;4.50;;;24.10;63.20;;;;;;5043173;28;20477;-78
2023/06/05 19:35:33;;;;;;;6.10;5.60;;;23.90;64.30;;;;;;5050511;28;20602;-77
2023/06/05 19:51:37;;;;;;;6.13;5.10;;;23.70;65.80;;;;;;5038302;28;20523;-79
2023/06/05 19:54:25;;;;;;;5.23;4.80;;;23.70;66.10;;;;;;5047161;28;20868;-76
2023/06/05 20:01:15;;;;;;;5.80;5.33;;;23.40;68.30;;;;;;5035971;28;20464;-79
2023/06/05 20:04:27;;;;;;;5.50;5.07;;;23.30;75.50;;;;;;4930385;29;20456;-78
2023/06/05 20:13:09;;;;;;;6.50;4.73;;;22.80;91.60;;;;;;4893913;29;20512;-77
2023/06/05 20:15:47;;;;;;;6.53;5.07;;;22.50;95.40;;;;;;4931132;29;20510;-79